createdAt,value
2022-11-28T00:00:57.251Z,13.97
2022-11-28T00:03:25.801Z,14.30
2022-11-28T00:05:53.658Z,13.43
2022-11-28T00:08:22.052Z,14.10
2022-11-28T00:10:51.008Z,13.17
2022-11-28T00:13:19.092Z,13.60
2022-11-28T00:15:46.985Z,13.97
2022-11-28T00:18:14.728Z,13.53
2022-11-28T00:20:42.380Z,14.30
2022-11-28T00:23:10.742Z,14.33
2022-11-28T00:25:38.404Z,14.40
2022-11-28T00:28:07.587Z,15.03
2022-11-28T00:30:37.134Z,13.97
2022-11-28T00:33:05.089Z,14.37
2022-11-28T00:35:32.703Z,15.60
2022-11-28T00:38:00.757Z,15.57
2022-11-28T00:40:28.363Z,14.90
2022-11-28T00:42:56.009Z,15.53
2022-11-28T00:45:24.995Z,16.13
2022-11-28T00:47:52.682Z,16.40
2022-11-28T00:50:20.301Z,16.47
2022-11-28T00:52:48.066Z,17.77
2022-11-28T00:55:15.897Z,17.03
2022-11-28T00:57:43.751Z,16.13
2022-11-28T01:00:12.083Z,17.43
2022-11-28T01:02:41.374Z,16.53
2022-11-28T01:05:09.605Z,16.87
2022-11-28T01:07:42.346Z,18.10
2022-11-28T01:10:11.738Z,18.00
2022-11-28T01:12:40.063Z,16.57
2022-11-28T01:15:09.008Z,18.47
2022-11-28T01:17:36.717Z,17.40
2022-11-28T01:20:07.257Z,18.27
2022-11-28T01:22:35.665Z,18.23
2022-11-28T01:25:03.320Z,17.80
2022-11-28T01:27:33.173Z,18.80
2022-11-28T01:30:01.233Z,18.70
2022-11-28T01:32:29.037Z,18.83
2022-11-28T01:34:57.881Z,18.50
2022-11-28T01:37:27.103Z,18.17
2022-11-28T01:39:54.733Z,17.80
2022-11-28T01:42:22.370Z,18.40
2022-11-28T01:45:06.118Z,17.90
2022-11-28T01:47:34.505Z,18.77
2022-11-28T01:50:02.322Z,17.60
2022-11-28T01:52:31.952Z,17.60
2022-11-28T01:55:01.117Z,17.80
2022-11-28T01:57:29.077Z,17.57
2022-11-28T01:59:58.407Z,16.60
2022-11-28T02:02:28.000Z,17.00
2022-11-28T02:04:55.995Z,17.30
2022-11-28T02:07:23.776Z,16.37
2022-11-28T02:09:52.807Z,16.90
2022-11-28T02:12:25.341Z,15.73
2022-11-28T02:15:01.225Z,16.77
2022-11-28T02:17:35.131Z,17.60
2022-11-28T02:20:33.295Z,15.93
2022-11-28T02:23:05.288Z,16.07
2022-11-28T02:25:44.010Z,16.37
2022-11-28T02:28:30.182Z,15.77
2022-11-28T02:31:05.131Z,17.20
2022-11-28T02:33:35.670Z,15.73
2022-11-28T02:36:09.051Z,16.17
2022-11-28T02:38:41.382Z,15.50
2022-11-28T02:49:31.020Z,15.30
2022-11-28T02:52:01.273Z,14.90
2022-11-28T02:54:31.784Z,15.60
2022-11-28T02:56:59.481Z,14.27
2022-11-28T02:59:32.424Z,15.73
2022-11-28T03:02:00.694Z,16.27
2022-11-28T03:04:32.791Z,16.03
2022-11-28T03:07:06.324Z,16.00
2022-11-28T03:09:48.809Z,16.37
2022-11-28T03:12:20.967Z,16.07
2022-11-28T03:14:53.046Z,15.13
2022-11-28T03:17:25.670Z,15.37
2022-11-28T03:19:58.996Z,15.90
2022-11-28T03:22:28.824Z,17.23
2022-11-28T03:25:01.577Z,17.07
2022-11-28T03:27:33.142Z,16.20
2022-11-28T03:30:03.477Z,15.63
2022-11-28T03:32:33.859Z,16.50
2022-11-28T03:37:57.170Z,16.53
2022-11-28T03:40:28.358Z,17.43
2022-11-28T03:42:59.182Z,16.57
2022-11-28T03:45:28.944Z,16.07
2022-11-28T03:47:58.818Z,16.00
2022-11-28T03:50:30.734Z,16.53
2022-11-28T03:53:02.308Z,15.90
2022-11-28T03:55:33.913Z,16.07
2022-11-28T03:58:05.898Z,16.87
2022-11-28T04:00:34.878Z,15.63
2022-11-28T04:03:07.806Z,16.30
2022-11-28T04:05:41.399Z,16.17
2022-11-28T04:08:13.340Z,16.67
2022-11-28T04:10:43.234Z,14.90
2022-11-28T04:13:16.506Z,16.20
2022-11-28T04:15:47.383Z,16.93
2022-11-28T04:18:21.615Z,17.90
2022-11-28T04:20:54.041Z,16.07
2022-11-28T04:23:22.629Z,18.13
2022-11-28T04:25:52.646Z,17.00
2022-11-28T04:28:22.935Z,17.23
2022-11-28T04:30:51.837Z,17.50
2022-11-28T04:33:20.689Z,16.47
2022-11-28T04:35:51.631Z,17.20
2022-11-28T04:38:22.079Z,18.63
2022-11-28T04:40:58.014Z,16.87
2022-11-28T04:43:27.678Z,17.23
2022-11-28T04:45:57.389Z,17.33
2022-11-28T04:48:28.644Z,17.70
2022-11-28T04:51:03.667Z,18.77
2022-11-28T04:53:35.474Z,16.63
2022-11-28T04:56:06.332Z,16.80
2022-11-28T04:58:35.960Z,16.00
2022-11-28T05:01:07.750Z,16.07
2022-11-28T05:03:41.126Z,16.13
2022-11-28T05:06:10.312Z,16.37
2022-11-28T05:08:39.294Z,16.13
2022-11-28T05:11:07.158Z,15.70
2022-11-28T05:13:34.957Z,16.20
2022-11-28T05:16:03.343Z,15.60
2022-11-28T05:18:31.118Z,17.03
2022-11-28T05:20:59.807Z,16.70
2022-11-28T05:23:27.421Z,16.87
2022-11-28T05:25:56.417Z,15.40
2022-11-28T05:28:25.166Z,15.87
2022-11-28T05:30:57.447Z,15.30
2022-11-28T05:33:25.637Z,16.43
2022-11-28T05:35:53.450Z,15.60
2022-11-28T05:38:21.380Z,15.70
2022-11-28T05:40:48.998Z,15.73
2022-11-28T05:43:18.203Z,15.50
2022-11-28T05:45:46.376Z,15.13
2022-11-28T05:48:14.587Z,16.70
2022-11-28T05:50:42.513Z,16.47
2022-11-28T05:53:10.649Z,16.07
2022-11-28T05:55:38.753Z,16.47
2022-11-28T05:58:06.593Z,16.03
2022-11-28T06:00:35.669Z,16.77
2022-11-28T06:03:04.636Z,16.63
2022-11-28T06:05:42.668Z,15.50
2022-11-28T06:08:12.021Z,15.50
2022-11-28T06:10:39.617Z,16.00
2022-11-28T06:13:07.545Z,16.13
2022-11-28T06:15:38.513Z,16.40
2022-11-28T06:18:06.400Z,16.40
2022-11-28T06:20:35.572Z,17.20
2022-11-28T06:23:03.444Z,16.77
2022-11-28T06:25:31.027Z,17.67
2022-11-28T06:27:58.878Z,19.13
2022-11-28T06:30:26.782Z,17.70
2022-11-28T06:32:55.745Z,19.57
2022-11-28T06:35:23.312Z,19.50
2022-11-28T06:37:51.298Z,20.13
2022-11-28T06:40:18.989Z,20.30
2022-11-28T06:42:50.294Z,18.47
2022-11-28T06:45:18.143Z,18.80
2022-11-28T06:47:45.780Z,18.77
2022-11-28T06:50:14.928Z,19.30
2022-11-28T06:52:42.769Z,20.30
2022-11-28T06:55:12.027Z,19.63
2022-11-28T06:57:39.569Z,19.30
2022-11-28T07:00:08.420Z,19.27
2022-11-28T07:02:36.044Z,19.30
2022-11-28T07:05:04.530Z,19.33
2022-11-28T07:07:38.493Z,18.40
2022-11-28T07:10:17.929Z,21.07
2022-11-28T07:12:46.042Z,19.60
2022-11-28T07:15:13.853Z,18.90
2022-11-28T07:17:41.684Z,18.77
2022-11-28T07:20:10.378Z,18.73
2022-11-28T07:22:39.447Z,20.27
2022-11-28T07:25:07.994Z,19.00
2022-11-28T07:27:35.659Z,19.80
2022-11-28T07:30:03.234Z,18.83
2022-11-28T07:32:31.653Z,19.67
2022-11-28T07:35:00.584Z,19.13
2022-11-28T07:37:28.135Z,20.30
2022-11-28T07:39:57.509Z,21.03
2022-11-28T07:42:25.688Z,20.30
2022-11-28T07:45:04.212Z,20.00
2022-11-28T07:47:32.634Z,20.00
2022-11-28T07:50:00.221Z,18.63
2022-11-28T07:52:28.045Z,18.50
2022-11-28T07:54:57.056Z,19.50
2022-11-28T07:57:24.654Z,20.63
2022-11-28T07:59:52.261Z,19.97
2022-11-28T08:02:20.125Z,19.00
2022-11-28T08:04:51.686Z,18.77
2022-11-28T08:07:22.913Z,19.33
2022-11-28T08:09:50.604Z,19.37
2022-11-28T08:12:19.635Z,18.30
2022-11-28T08:14:48.717Z,18.40
2022-11-28T08:17:16.544Z,19.90
2022-11-28T08:19:44.142Z,18.57
2022-11-28T08:22:12.396Z,18.20
2022-11-28T08:24:40.690Z,19.00
2022-11-28T08:27:10.286Z,19.37
2022-11-28T08:29:39.608Z,18.90
2022-11-28T08:32:07.414Z,18.80
2022-11-28T08:34:34.981Z,18.80
2022-11-28T08:37:02.977Z,17.37
2022-11-28T08:39:30.531Z,18.23
2022-11-28T08:41:59.477Z,18.20
2022-11-28T08:44:30.355Z,18.20
2022-11-28T08:47:00.402Z,18.90
2022-11-28T08:49:29.674Z,18.57
2022-11-28T08:51:57.281Z,18.30
2022-11-28T08:54:24.871Z,18.53
2022-11-28T08:56:52.658Z,18.70
2022-11-28T08:59:20.415Z,19.13
2022-11-28T09:01:48.274Z,18.00
2022-11-28T09:04:17.405Z,18.90
2022-11-28T09:06:45.158Z,18.60
2022-11-28T09:09:13.769Z,18.50
2022-11-28T09:11:41.635Z,18.00
2022-11-28T09:14:09.506Z,17.67
2022-11-28T09:16:38.501Z,17.90
2022-11-28T09:19:09.190Z,18.60
2022-11-28T09:21:43.207Z,18.40
2022-11-28T09:24:13.968Z,17.37
2022-11-28T09:26:41.791Z,17.30
2022-11-28T09:29:09.378Z,18.20
2022-11-28T09:31:37.317Z,17.47
2022-11-28T09:34:04.999Z,17.77
2022-11-28T09:36:33.025Z,17.27
2022-11-28T09:39:02.441Z,18.63
2022-11-28T09:41:33.745Z,18.20
2022-11-28T09:44:04.254Z,16.83
2022-11-28T09:46:33.802Z,17.97
2022-11-28T09:49:02.521Z,17.77
2022-11-28T09:51:32.746Z,17.30
2022-11-28T09:54:04.746Z,18.60
2022-11-28T09:56:32.854Z,18.67
2022-11-28T09:59:03.547Z,19.00
2022-11-28T10:01:34.829Z,17.27
2022-11-28T10:04:05.826Z,17.60
2022-11-28T10:06:37.057Z,18.70
2022-11-28T10:09:19.575Z,17.50
2022-11-28T10:11:58.982Z,17.10
2022-11-28T10:14:39.530Z,18.73
2022-11-28T10:17:14.094Z,17.93
2022-11-28T10:19:54.234Z,17.93
2022-11-28T10:22:27.616Z,18.50
2022-11-28T10:24:57.423Z,18.43
2022-11-28T10:27:30.525Z,20.70
2022-11-28T10:30:01.263Z,17.97
2022-11-28T10:32:32.410Z,18.83
2022-11-28T10:35:02.034Z,18.90
2022-11-28T10:37:30.938Z,18.33
2022-11-28T10:40:04.073Z,20.27
2022-11-28T10:42:36.752Z,17.57
2022-11-28T10:45:13.113Z,18.70
2022-11-28T10:47:48.721Z,18.50
2022-11-28T10:50:21.057Z,17.67
2022-11-28T10:52:51.399Z,18.77
2022-11-28T10:55:24.036Z,17.47
2022-11-28T10:57:57.194Z,18.77
2022-11-28T11:00:45.840Z,18.00
2022-11-28T11:03:15.312Z,17.70
2022-11-28T11:05:43.237Z,18.97
2022-11-28T11:08:13.973Z,19.30
2022-11-28T11:10:43.685Z,18.63
2022-11-28T11:13:15.612Z,18.27
2022-11-28T11:15:43.514Z,18.60
2022-11-28T11:21:09.533Z,16.33
2022-11-28T11:23:38.601Z,18.07
2022-11-28T11:26:10.035Z,17.73
2022-11-28T11:28:42.734Z,19.00
2022-11-28T11:31:21.841Z,19.20
2022-11-28T11:33:51.333Z,17.47
2022-11-28T11:36:24.283Z,17.80
2022-11-28T11:38:53.422Z,18.70
2022-11-28T11:41:27.188Z,17.77
2022-11-28T11:43:56.409Z,17.10
2022-11-28T11:46:24.295Z,17.00
2022-11-28T11:48:53.204Z,18.13
2022-11-28T11:51:25.259Z,18.50
2022-11-28T11:54:04.591Z,16.80
2022-11-28T11:56:34.750Z,16.80
2022-11-28T11:59:06.333Z,17.73
2022-11-28T12:01:34.722Z,16.73
2022-11-28T12:04:23.815Z,16.40
2022-11-28T12:06:56.152Z,17.00
2022-11-28T12:09:28.830Z,16.37
2022-11-28T12:12:00.244Z,17.17
2022-11-28T12:14:31.190Z,16.00
2022-11-28T12:17:25.937Z,16.10
2022-11-28T12:20:01.697Z,17.30
2022-11-28T12:22:36.289Z,16.87
2022-11-28T12:25:11.328Z,16.90
2022-11-28T12:27:53.174Z,17.17
2022-11-28T12:30:26.452Z,16.00
2022-11-28T12:32:58.849Z,16.93
2022-11-28T12:35:32.694Z,16.40
2022-11-28T12:38:12.171Z,15.50
2022-11-28T12:40:43.781Z,16.40
2022-11-28T12:43:20.781Z,17.27
2022-11-28T12:45:55.687Z,16.93
2022-11-28T12:48:33.661Z,17.10
2022-11-28T12:51:03.930Z,16.00
2022-11-28T12:53:42.352Z,16.63
2022-11-28T12:56:19.263Z,17.40
2022-11-28T12:58:48.576Z,16.73
2022-11-28T13:01:26.545Z,17.93
2022-11-28T13:04:01.099Z,18.10
2022-11-28T13:06:35.207Z,21.93
2022-11-28T13:09:15.710Z,18.57
2022-11-28T13:11:51.125Z,18.90
2022-11-28T13:14:23.995Z,18.20
2022-11-28T13:16:53.980Z,17.37
2022-11-28T13:19:35.196Z,18.00
2022-11-28T13:22:08.679Z,17.70
2022-11-28T13:24:40.149Z,17.87
2022-11-28T13:27:10.410Z,17.43
2022-11-28T13:29:41.317Z,19.20
2022-11-28T13:32:13.661Z,18.43
2022-11-28T13:34:42.016Z,18.60
2022-11-28T13:40:03.795Z,18.70
2022-11-28T13:43:02.464Z,18.20
2022-11-28T13:45:32.750Z,18.67
2022-11-28T13:48:32.286Z,18.03
2022-11-28T13:51:20.730Z,19.60
2022-11-28T13:54:11.665Z,19.03
2022-11-28T13:56:40.938Z,19.90
2022-11-28T13:59:15.348Z,18.80
2022-11-28T14:01:44.626Z,19.60
2022-11-28T14:04:14.213Z,20.90
2022-11-28T14:06:44.566Z,18.70
2022-11-28T14:09:21.402Z,19.10
2022-11-28T14:11:59.868Z,20.73
2022-11-28T14:14:38.140Z,19.37
2022-11-28T14:17:12.874Z,19.70
2022-11-28T14:19:47.118Z,21.03
2022-11-28T14:22:22.156Z,22.70
2022-11-28T14:24:55.554Z,23.20
2022-11-28T14:27:26.376Z,22.47
2022-11-28T14:29:55.769Z,22.30
2022-11-28T14:32:31.248Z,22.80
2022-11-28T14:35:00.831Z,24.60
2022-11-28T14:37:52.963Z,25.47
2022-11-28T14:40:39.761Z,24.40
2022-11-28T14:43:26.093Z,24.63
2022-11-28T14:46:13.953Z,24.83
2022-11-28T14:48:42.545Z,27.80
2022-11-28T14:51:10.210Z,28.40
2022-11-28T14:53:44.601Z,27.60
2022-11-28T14:56:23.935Z,26.23
2022-11-28T14:58:56.346Z,26.80
2022-11-28T15:01:31.734Z,26.43
2022-11-28T15:04:04.782Z,26.70
2022-11-28T15:06:35.478Z,26.67
2022-11-28T15:09:07.324Z,27.90
2022-11-28T15:11:58.399Z,26.37
2022-11-28T15:14:29.346Z,25.87
2022-11-28T15:17:02.781Z,25.50
2022-11-28T15:19:33.156Z,28.00
2022-11-28T15:22:01.721Z,27.40
2022-11-28T15:24:35.045Z,27.93
2022-11-28T15:27:19.512Z,30.60
2022-11-28T15:29:55.137Z,28.17
2022-11-28T15:32:23.584Z,27.70
2022-11-28T15:34:53.209Z,28.00
2022-11-28T15:37:21.577Z,27.80
2022-11-28T15:39:50.224Z,28.63
2022-11-28T15:42:21.340Z,26.87
2022-11-28T15:44:52.471Z,29.13
2022-11-28T15:47:22.426Z,27.73
2022-11-28T15:50:00.265Z,27.07
2022-11-28T15:52:28.565Z,27.93
2022-11-28T15:54:56.134Z,27.43
2022-11-28T15:57:25.118Z,29.07
2022-11-28T15:59:53.181Z,27.13
2022-11-28T16:02:26.555Z,27.73
2022-11-28T16:04:58.217Z,28.03
2022-11-28T16:07:26.050Z,28.97
2022-11-28T16:09:59.068Z,29.20
2022-11-28T16:12:27.486Z,29.70
2022-11-28T16:15:01.513Z,28.90
2022-11-28T16:17:31.456Z,29.57
2022-11-28T16:20:00.513Z,27.60
2022-11-28T16:22:34.636Z,28.30
2022-11-28T16:25:12.515Z,28.70
2022-11-28T16:27:41.838Z,27.53
2022-11-28T16:30:24.517Z,29.13
2022-11-28T16:32:54.074Z,29.43
2022-11-28T16:35:26.778Z,31.60
2022-11-28T16:37:54.684Z,30.47
2022-11-28T16:40:23.857Z,30.60
2022-11-28T16:42:55.117Z,29.90
2022-11-28T16:45:25.639Z,29.67
2022-11-28T16:47:56.648Z,30.10
2022-11-28T16:50:24.626Z,33.43
2022-11-28T16:52:53.117Z,31.10
2022-11-28T16:55:40.664Z,30.50
2022-11-28T16:58:18.867Z,30.77
2022-11-28T17:00:50.227Z,32.83
2022-11-28T17:03:39.298Z,32.90
2022-11-28T17:06:13.064Z,32.07
2022-11-28T17:08:41.108Z,31.70
2022-11-28T17:11:08.865Z,30.93
2022-11-28T17:13:36.594Z,32.87
2022-11-28T17:16:04.499Z,30.87
2022-11-28T17:18:32.137Z,32.93
2022-11-28T17:21:00.291Z,32.77
2022-11-28T17:23:29.321Z,33.63
2022-11-28T17:25:56.967Z,31.83
2022-11-28T17:28:29.011Z,32.60
2022-11-28T17:30:56.961Z,32.77
2022-11-28T17:33:24.753Z,33.77
2022-11-28T17:35:53.437Z,33.03
2022-11-28T17:38:21.160Z,32.20
2022-11-28T17:40:50.576Z,32.03
2022-11-28T17:43:19.021Z,33.77
2022-11-28T17:45:47.416Z,32.60
2022-11-28T17:48:16.142Z,34.07
2022-11-28T17:50:44.925Z,33.73
2022-11-28T17:53:13.813Z,33.63
2022-11-28T17:55:42.679Z,34.13
2022-11-28T17:58:16.661Z,33.47
2022-11-28T18:00:45.314Z,35.00
2022-11-28T18:03:13.637Z,35.63
2022-11-28T18:05:43.709Z,35.13
2022-11-28T18:08:12.294Z,34.90
2022-11-28T18:10:39.903Z,37.53
2022-11-28T18:13:09.442Z,36.43
2022-11-28T18:15:42.642Z,35.37
2022-11-28T18:18:10.434Z,34.90
2022-11-28T18:20:38.670Z,35.40
2022-11-28T18:23:11.536Z,36.07
2022-11-28T18:25:42.080Z,35.80
2022-11-28T18:28:13.260Z,34.57
2022-11-28T18:30:45.898Z,35.87
2022-11-28T18:33:13.767Z,34.23
2022-11-28T18:35:41.717Z,36.63
2022-11-28T18:38:12.005Z,39.90
2022-11-28T18:40:39.924Z,35.90
2022-11-28T18:43:07.996Z,35.63
2022-11-28T18:45:36.267Z,37.73
2022-11-28T18:48:05.371Z,36.07
2022-11-28T18:50:35.416Z,36.47
2022-11-28T18:53:03.324Z,38.37
2022-11-28T18:55:30.932Z,37.47
2022-11-28T18:57:59.793Z,35.90
2022-11-28T19:00:27.543Z,36.60
2022-11-28T19:02:55.515Z,35.20
2022-11-28T19:05:25.124Z,37.10
2022-11-28T19:07:53.541Z,37.50
2022-11-28T19:10:21.198Z,35.03
2022-11-28T19:12:49.013Z,35.83
2022-11-28T19:15:17.100Z,37.90
2022-11-28T19:17:44.878Z,37.10
2022-11-28T19:20:14.072Z,35.53
2022-11-28T19:22:43.213Z,36.00
2022-11-28T19:25:11.161Z,38.03
2022-11-28T19:27:38.793Z,38.20
2022-11-28T19:30:07.290Z,36.67
2022-11-28T19:32:36.204Z,39.07
2022-11-28T19:35:04.500Z,36.60
2022-11-28T19:37:32.232Z,37.00
2022-11-28T19:40:03.095Z,35.90
2022-11-28T19:42:31.454Z,36.23
2022-11-28T19:44:59.549Z,35.50
2022-11-28T19:47:27.931Z,36.63
2022-11-28T19:49:55.602Z,35.80
2022-11-28T19:52:23.466Z,37.07
2022-11-28T19:54:51.252Z,36.77
2022-11-28T19:57:20.710Z,36.53
2022-11-28T19:59:48.712Z,36.77
2022-11-28T20:02:21.734Z,36.70
2022-11-28T20:04:49.782Z,37.00
2022-11-28T20:07:17.509Z,37.87
2022-11-28T20:09:45.937Z,34.80
2022-11-28T20:12:13.788Z,34.93
2022-11-28T20:14:43.477Z,36.30
2022-11-28T20:17:12.412Z,37.13
2022-11-28T20:19:40.091Z,37.30
2022-11-28T20:22:07.833Z,35.53
2022-11-28T20:24:35.903Z,36.30
2022-11-28T20:27:04.130Z,35.80
2022-11-28T20:29:33.189Z,34.20
2022-11-28T20:32:03.427Z,36.60
2022-11-28T20:34:31.398Z,36.47
2022-11-28T20:37:00.374Z,35.90
2022-11-28T20:39:29.560Z,37.73
2022-11-28T20:41:57.174Z,37.50
2022-11-28T20:44:25.050Z,34.70
2022-11-28T20:46:53.154Z,37.70
2022-11-28T20:49:22.213Z,35.33
2022-11-28T20:51:50.471Z,35.00
2022-11-28T20:54:18.408Z,35.87
2022-11-28T20:57:13.307Z,33.70
2022-11-28T20:59:34.316Z,35.07
2022-11-28T21:02:01.973Z,39.43
2022-11-28T21:04:31.102Z,38.70
2022-11-28T21:06:59.018Z,41.40
2022-11-28T21:09:26.652Z,35.77
2022-11-28T21:11:58.847Z,35.97
2022-11-28T21:14:28.109Z,36.03
2022-11-28T21:16:56.146Z,34.33
2022-11-28T21:19:24.041Z,34.00
2022-11-28T21:21:53.302Z,35.57
2022-11-28T21:24:21.161Z,33.67
2022-11-28T21:26:53.602Z,38.57
2022-11-28T21:29:23.331Z,36.00
2022-11-28T21:31:51.669Z,36.27
2022-11-28T21:34:19.708Z,34.80
2022-11-28T21:36:48.392Z,36.80
2022-11-28T21:39:22.591Z,35.63
2022-11-28T21:41:52.315Z,36.17
2022-11-28T21:44:20.272Z,35.57
2022-11-28T21:46:47.917Z,35.40
2022-11-28T21:49:15.966Z,34.20
2022-11-28T21:51:44.002Z,34.57
2022-11-28T21:54:12.246Z,34.90
2022-11-28T21:56:42.043Z,33.93
2022-11-28T21:59:10.714Z,35.93
2022-11-28T22:01:40.856Z,34.43
2022-11-28T22:04:11.426Z,34.97
2022-11-28T22:06:40.425Z,33.90
2022-11-28T22:09:09.866Z,34.37
2022-11-28T22:11:41.373Z,35.27
2022-11-28T22:14:09.112Z,35.80
2022-11-28T22:16:37.996Z,35.67
2022-11-28T22:19:11.716Z,35.70
2022-11-28T22:21:56.016Z,32.80
2022-11-28T22:24:27.033Z,34.17
2022-11-28T22:26:57.361Z,35.17
2022-11-28T22:29:25.380Z,34.90
2022-11-28T22:31:54.508Z,34.40
2022-11-28T22:34:23.133Z,34.43
2022-11-28T22:36:50.800Z,33.63
2022-11-28T22:39:20.990Z,36.03
2022-11-28T22:41:49.203Z,42.30
2022-11-28T22:44:18.861Z,44.73
2022-11-28T22:46:47.149Z,45.17
2022-11-28T22:49:14.961Z,49.10
2022-11-28T22:51:43.091Z,52.27
2022-11-28T22:54:13.328Z,53.20
2022-11-28T22:56:41.786Z,49.23
2022-11-28T22:59:12.191Z,52.20
2022-11-28T23:01:41.867Z,55.40
2022-11-28T23:04:10.057Z,57.57
2022-11-28T23:06:38.526Z,57.20
2022-11-28T23:09:07.387Z,57.90
2022-11-28T23:11:36.076Z,59.37
2022-11-28T23:14:05.682Z,55.80
2022-11-28T23:16:34.673Z,54.07
2022-11-28T23:19:05.295Z,55.70
2022-11-28T23:21:34.601Z,51.17
2022-11-28T23:24:02.261Z,51.67
2022-11-28T23:26:31.600Z,52.27
2022-11-28T23:28:59.825Z,51.70
2022-11-28T23:31:29.758Z,55.30
2022-11-28T23:33:57.937Z,51.67
2022-11-28T23:36:28.414Z,50.70
2022-11-28T23:38:57.662Z,47.17
2022-11-28T23:41:25.518Z,48.27
2022-11-28T23:43:53.942Z,44.57
2022-11-28T23:46:22.642Z,47.60
2022-11-28T23:48:50.769Z,45.03
2022-11-28T23:51:18.965Z,45.50
2022-11-28T23:53:48.602Z,42.10
2022-11-28T23:56:17.318Z,44.20
2022-11-28T23:58:45.271Z,43.07
